메인 페이지
METAR-TAF:

METAR-TAF

공항 :

구이린 량장 국제공항

구이린, 중국

위도: 25-20N, 경도: 110-18E, 고도: 166m

현재 날씨관측

예보는 53분 전, 20:00시(UTC)에 발표되었습니다.
여러 방향의 바람 2kt
온도 26°C
습도 94%
기압 1001 hPa
시정: 4500m
고도 6600ft 상공 구름 조금
박무

METAR: ZGKL 202000Z VRB01MPS 4500 BR FEW066 26/25 Q1001 NOSIG

시각: 04:53 (20:53 UTC)

예보

예보는 5 시간 48분 전, 15:05시(UTC)에 발표되었습니다.
예보 대상 시간: 20일 18시부터 21일 18시까지 (UTC)
6kt
시정 10km 이상
고도 4000ft 상공 구름 보통

TAF: ZGKL 201505Z 2018/2118 17003MPS 9999 SCT040 TX37/2107Z TN24/2022Z

4,000개 이상의 공항 관측 자료 및 예보 (METAR 및 TAF 보고).

지도상에서 검색 가능한 기상관측소가 노란 점과 빨간 점으로 표시되어 있습니다.

기상관측소 명을 보려면 표시 위로 마우스를 이동하세요.

날씨 관측과 예보를 보려면 클릭하세요.

지도 변경 : 확대하려면 엑스 표시가 있는 녹색 버튼, 축소하려면 빼기 표시가 있는 녹색 버튼, 다음 페이지의 지도를 보려면 녹색 화살표를 클릭하세요.


METAR-TAF: